sensor_id;sensor_type;location;lat;lon;timestamp;temperature;humidity
31783;DHT22;18351;47.560;9.708;2023-12-20T00:00:52;4.60;99.90
31783;DHT22;18351;47.560;9.708;2023-12-20T00:03:17;4.50;99.90
31783;DHT22;18351;47.560;9.708;2023-12-20T00:05:43;4.50;99.90
31783;DHT22;18351;47.560;9.708;2023-12-20T00:08:09;4.50;99.90
31783;DHT22;18351;47.560;9.708;2023-12-20T00:10:35;4.50;99.90
31783;DHT22;18351;47.560;9.708;2023-12-20T00:13:00;4.40;99.90
31783;DHT22;18351;47.560;9.708;2023-12-20T00:15:26;4.40;99.90
31783;DHT22;18351;47.560;9.708;2023-12-20T00:17:51;4.40;99.90
31783;DHT22;18351;47.560;9.708;2023-12-20T00:20:17;4.40;99.90
31783;DHT22;18351;47.560;9.708;2023-12-20T00:22:42;4.30;99.90
31783;DHT22;18351;47.560;9.708;2023-12-20T00:25:08;4.20;99.90
31783;DHT22;18351;47.560;9.708;2023-12-20T00:27:33;4.20;99.90
31783;DHT22;18351;47.560;9.708;2023-12-20T00:29:59;4.20;99.90
31783;DHT22;18351;47.560;9.708;2023-12-20T00:32:25;4.10;99.90
31783;DHT22;18351;47.560;9.708;2023-12-20T00:34:50;4.10;99.90
31783;DHT22;18351;47.560;9.708;2023-12-20T00:37:16;4.10;99.90
31783;DHT22;18351;47.560;9.708;2023-12-20T00:39:42;4.10;99.90
31783;DHT22;18351;47.560;9.708;2023-12-20T00:42:07;4.00;99.90
31783;DHT22;18351;47.560;9.708;2023-12-20T00:44:33;3.90;99.90
31783;DHT22;18351;47.560;9.708;2023-12-20T00:46:58;4.00;99.90
31783;DHT22;18351;47.560;9.708;2023-12-20T00:49:24;3.90;99.90
31783;DHT22;18351;47.560;9.708;2023-12-20T00:51:49;3.90;99.90
31783;DHT22;18351;47.560;9.708;2023-12-20T00:54:16;3.90;99.90
31783;DHT22;18351;47.560;9.708;2023-12-20T00:56:41;3.80;99.90
31783;DHT22;18351;47.560;9.708;2023-12-20T00:59:07;3.80;99.90
31783;DHT22;18351;47.560;9.708;2023-12-20T01:01:32;3.80;99.90
31783;DHT22;18351;47.560;9.708;2023-12-20T01:03:58;3.80;99.90
31783;DHT22;18351;47.560;9.708;2023-12-20T01:06:24;3.90;99.90
31783;DHT22;18351;47.560;9.708;2023-12-20T01:08:49;3.90;99.90
31783;DHT22;18351;47.560;9.708;2023-12-20T01:11:15;4.00;99.90
31783;DHT22;18351;47.560;9.708;2023-12-20T01:13:40;4.00;99.90
31783;DHT22;18351;47.560;9.708;2023-12-20T01:16:06;4.00;99.90
31783;DHT22;18351;47.560;9.708;2023-12-20T01:18:31;4.00;99.90
31783;DHT22;18351;47.560;9.708;2023-12-20T01:21:02;4.00;99.90
31783;DHT22;18351;47.560;9.708;2023-12-20T01:23:28;4.10;99.90
31783;DHT22;18351;47.560;9.708;2023-12-20T01:25:54;4.10;99.90
31783;DHT22;18351;47.560;9.708;2023-12-20T01:28:19;4.20;99.90
31783;DHT22;18351;47.560;9.708;2023-12-20T01:30:45;4.30;99.90
31783;DHT22;18351;47.560;9.708;2023-12-20T01:33:10;4.30;99.90
31783;DHT22;18351;47.560;9.708;2023-12-20T01:35:36;4.30;99.90
31783;DHT22;18351;47.560;9.708;2023-12-20T01:38:02;4.40;99.90
31783;DHT22;18351;47.560;9.708;2023-12-20T01:40:28;4.40;99.90
31783;DHT22;18351;47.560;9.708;2023-12-20T01:43:01;4.40;99.90
31783;DHT22;18351;47.560;9.708;2023-12-20T01:45:26;4.40;99.90
31783;DHT22;18351;47.560;9.708;2023-12-20T01:47:53;4.50;99.90
31783;DHT22;18351;47.560;9.708;2023-12-20T01:50:18;4.50;99.90
31783;DHT22;18351;47.560;9.708;2023-12-20T01:52:44;4.50;99.90
31783;DHT22;18351;47.560;9.708;2023-12-20T01:55:10;4.50;99.90
31783;DHT22;18351;47.560;9.708;2023-12-20T01:57:42;4.50;99.90
31783;DHT22;18351;47.560;9.708;2023-12-20T02:00:09;4.50;99.90
31783;DHT22;18351;47.560;9.708;2023-12-20T02:02:39;4.60;99.90
31783;DHT22;18351;47.560;9.708;2023-12-20T02:05:06;4.60;99.90
31783;DHT22;18351;47.560;9.708;2023-12-20T02:07:31;4.50;99.90
31783;DHT22;18351;47.560;9.708;2023-12-20T02:09:57;4.60;99.90
31783;DHT22;18351;47.560;9.708;2023-12-20T02:12:23;4.60;99.90
31783;DHT22;18351;47.560;9.708;2023-12-20T02:14:49;4.60;99.90
31783;DHT22;18351;47.560;9.708;2023-12-20T02:17:15;4.70;99.90
31783;DHT22;18351;47.560;9.708;2023-12-20T02:19:41;4.70;99.90
31783;DHT22;18351;47.560;9.708;2023-12-20T02:22:10;4.70;99.90
31783;DHT22;18351;47.560;9.708;2023-12-20T02:24:36;4.70;99.90
31783;DHT22;18351;47.560;9.708;2023-12-20T02:27:02;4.70;99.90
31783;DHT22;18351;47.560;9.708;2023-12-20T02:29:28;4.80;99.90
31783;DHT22;18351;47.560;9.708;2023-12-20T02:31:54;4.70;99.90
31783;DHT22;18351;47.560;9.708;2023-12-20T02:34:19;4.80;99.90
31783;DHT22;18351;47.560;9.708;2023-12-20T02:36:45;4.80;99.90
31783;DHT22;18351;47.560;9.708;2023-12-20T02:39:10;4.90;99.90
31783;DHT22;18351;47.560;9.708;2023-12-20T02:41:36;4.80;99.90
31783;DHT22;18351;47.560;9.708;2023-12-20T02:44:03;4.80;99.90
31783;DHT22;18351;47.560;9.708;2023-12-20T02:46:28;4.90;99.90
31783;DHT22;18351;47.560;9.708;2023-12-20T02:48:54;4.80;99.90
31783;DHT22;18351;47.560;9.708;2023-12-20T02:51:20;4.80;99.90
31783;DHT22;18351;47.560;9.708;2023-12-20T02:53:45;4.90;99.90
31783;DHT22;18351;47.560;9.708;2023-12-20T02:56:11;5.00;99.90
31783;DHT22;18351;47.560;9.708;2023-12-20T02:58:37;5.00;99.90
31783;DHT22;18351;47.560;9.708;2023-12-20T03:01:02;4.90;99.90
31783;DHT22;18351;47.560;9.708;2023-12-20T03:03:28;5.00;99.90
31783;DHT22;18351;47.560;9.708;2023-12-20T03:05:53;5.10;99.90
31783;DHT22;18351;47.560;9.708;2023-12-20T03:08:19;5.10;99.90
31783;DHT22;18351;47.560;9.708;2023-12-20T03:10:45;5.10;99.90
31783;DHT22;18351;47.560;9.708;2023-12-20T03:13:10;5.10;99.90
31783;DHT22;18351;47.560;9.708;2023-12-20T03:15:36;5.10;99.90
31783;DHT22;18351;47.560;9.708;2023-12-20T03:18:02;5.10;99.90
31783;DHT22;18351;47.560;9.708;2023-12-20T03:20:28;5.10;99.90
31783;DHT22;18351;47.560;9.708;2023-12-20T03:22:53;5.10;99.90
31783;DHT22;18351;47.560;9.708;2023-12-20T03:25:19;5.10;99.90
31783;DHT22;18351;47.560;9.708;2023-12-20T03:27:44;5.10;99.90
31783;DHT22;18351;47.560;9.708;2023-12-20T03:30:10;5.10;99.90
31783;DHT22;18351;47.560;9.708;2023-12-20T03:32:37;5.20;99.90
31783;DHT22;18351;47.560;9.708;2023-12-20T03:35:03;5.20;99.90
31783;DHT22;18351;47.560;9.708;2023-12-20T03:37:29;5.20;99.90
31783;DHT22;18351;47.560;9.708;2023-12-20T03:39:54;5.10;99.90
31783;DHT22;18351;47.560;9.708;2023-12-20T03:42:20;5.20;99.90
31783;DHT22;18351;47.560;9.708;2023-12-20T03:44:46;5.20;99.90
31783;DHT22;18351;47.560;9.708;2023-12-20T03:47:11;5.20;99.90
31783;DHT22;18351;47.560;9.708;2023-12-20T03:49:37;5.10;99.90
31783;DHT22;18351;47.560;9.708;2023-12-20T03:52:04;5.10;99.90
31783;DHT22;18351;47.560;9.708;2023-12-20T03:54:30;5.10;99.90
31783;DHT22;18351;47.560;9.708;2023-12-20T03:56:55;5.20;99.90
31783;DHT22;18351;47.560;9.708;2023-12-20T03:59:22;5.20;99.90
31783;DHT22;18351;47.560;9.708;2023-12-20T04:01:47;5.10;99.90
31783;DHT22;18351;47.560;9.708;2023-12-20T04:04:13;5.10;99.90
31783;DHT22;18351;47.560;9.708;2023-12-20T04:06:39;5.10;99.90
31783;DHT22;18351;47.560;9.708;2023-12-20T04:09:05;5.10;99.90
31783;DHT22;18351;47.560;9.708;2023-12-20T04:11:30;5.00;99.90
31783;DHT22;18351;47.560;9.708;2023-12-20T04:13:56;5.00;99.90
31783;DHT22;18351;47.560;9.708;2023-12-20T04:16:22;5.10;99.90
31783;DHT22;18351;47.560;9.708;2023-12-20T04:18:47;5.10;99.90
31783;DHT22;18351;47.560;9.708;2023-12-20T04:21:13;5.10;99.90
31783;DHT22;18351;47.560;9.708;2023-12-20T04:23:38;5.10;99.90
31783;DHT22;18351;47.560;9.708;2023-12-20T04:26:04;5.10;99.90
31783;DHT22;18351;47.560;9.708;2023-12-20T04:28:29;5.00;99.90
31783;DHT22;18351;47.560;9.708;2023-12-20T04:30:55;5.10;99.90
31783;DHT22;18351;47.560;9.708;2023-12-20T04:33:21;5.10;99.90
31783;DHT22;18351;47.560;9.708;2023-12-20T04:35:48;5.10;99.90
31783;DHT22;18351;47.560;9.708;2023-12-20T04:38:13;5.00;99.90
31783;DHT22;18351;47.560;9.708;2023-12-20T04:40:39;5.00;99.90
31783;DHT22;18351;47.560;9.708;2023-12-20T04:43:06;5.10;99.90
31783;DHT22;18351;47.560;9.708;2023-12-20T04:45:32;5.10;99.90
31783;DHT22;18351;47.560;9.708;2023-12-20T04:47:57;5.10;99.90
31783;DHT22;18351;47.560;9.708;2023-12-20T04:50:23;5.10;99.90
31783;DHT22;18351;47.560;9.708;2023-12-20T04:52:49;5.10;99.90
31783;DHT22;18351;47.560;9.708;2023-12-20T04:55:14;5.10;99.90
31783;DHT22;18351;47.560;9.708;2023-12-20T04:57:40;5.00;99.90
31783;DHT22;18351;47.560;9.708;2023-12-20T05:00:06;5.00;99.90
31783;DHT22;18351;47.560;9.708;2023-12-20T05:02:34;5.00;99.90
31783;DHT22;18351;47.560;9.708;2023-12-20T05:04:59;5.00;99.90
31783;DHT22;18351;47.560;9.708;2023-12-20T05:07:25;5.00;99.90
31783;DHT22;18351;47.560;9.708;2023-12-20T05:09:50;5.00;99.90
31783;DHT22;18351;47.560;9.708;2023-12-20T05:12:16;5.00;99.90
31783;DHT22;18351;47.560;9.708;2023-12-20T05:14:41;5.00;99.90
31783;DHT22;18351;47.560;9.708;2023-12-20T05:17:07;5.00;99.90
31783;DHT22;18351;47.560;9.708;2023-12-20T05:19:33;4.90;99.90
31783;DHT22;18351;47.560;9.708;2023-12-20T05:22:01;4.90;99.90
31783;DHT22;18351;47.560;9.708;2023-12-20T05:24:27;4.90;99.90
31783;DHT22;18351;47.560;9.708;2023-12-20T05:26:52;5.00;99.90
31783;DHT22;18351;47.560;9.708;2023-12-20T05:29:18;5.00;99.90
31783;DHT22;18351;47.560;9.708;2023-12-20T05:31:44;5.00;99.90
31783;DHT22;18351;47.560;9.708;2023-12-20T05:34:09;5.00;99.90
31783;DHT22;18351;47.560;9.708;2023-12-20T05:36:35;5.00;99.90
31783;DHT22;18351;47.560;9.708;2023-12-20T05:39:01;5.10;99.90
31783;DHT22;18351;47.560;9.708;2023-12-20T05:41:26;5.10;99.90
31783;DHT22;18351;47.560;9.708;2023-12-20T05:43:52;5.20;99.90
31783;DHT22;18351;47.560;9.708;2023-12-20T05:46:18;5.30;99.90
31783;DHT22;18351;47.560;9.708;2023-12-20T05:48:43;5.50;99.90
31783;DHT22;18351;47.560;9.708;2023-12-20T05:51:11;5.50;99.90
31783;DHT22;18351;47.560;9.708;2023-12-20T05:53:37;5.60;99.90
31783;DHT22;18351;47.560;9.708;2023-12-20T05:56:03;5.70;99.90
31783;DHT22;18351;47.560;9.708;2023-12-20T05:58:29;5.70;99.90
31783;DHT22;18351;47.560;9.708;2023-12-20T06:00:54;5.70;99.90
31783;DHT22;18351;47.560;9.708;2023-12-20T06:03:20;5.70;99.90
31783;DHT22;18351;47.560;9.708;2023-12-20T06:05:45;5.70;99.90
31783;DHT22;18351;47.560;9.708;2023-12-20T06:08:11;5.70;99.90
31783;DHT22;18351;47.560;9.708;2023-12-20T06:10:37;5.80;99.90
31783;DHT22;18351;47.560;9.708;2023-12-20T06:13:02;5.80;99.90
31783;DHT22;18351;47.560;9.708;2023-12-20T06:15:29;5.80;99.90
31783;DHT22;18351;47.560;9.708;2023-12-20T06:17:55;5.90;99.90
31783;DHT22;18351;47.560;9.708;2023-12-20T06:20:20;5.80;99.90
31783;DHT22;18351;47.560;9.708;2023-12-20T06:22:46;5.90;99.90
31783;DHT22;18351;47.560;9.708;2023-12-20T06:25:12;5.90;99.90
31783;DHT22;18351;47.560;9.708;2023-12-20T06:27:37;6.00;99.90
31783;DHT22;18351;47.560;9.708;2023-12-20T06:30:03;5.90;99.90
31783;DHT22;18351;47.560;9.708;2023-12-20T06:32:29;5.80;99.90
31783;DHT22;18351;47.560;9.708;2023-12-20T06:34:55;5.90;99.90
31783;DHT22;18351;47.560;9.708;2023-12-20T06:37:21;5.90;99.90
31783;DHT22;18351;47.560;9.708;2023-12-20T06:39:46;5.90;99.90
31783;DHT22;18351;47.560;9.708;2023-12-20T06:42:13;5.90;99.90
31783;DHT22;18351;47.560;9.708;2023-12-20T06:44:38;5.90;99.90
31783;DHT22;18351;47.560;9.708;2023-12-20T06:47:05;5.90;99.90
31783;DHT22;18351;47.560;9.708;2023-12-20T06:49:30;5.90;99.90
31783;DHT22;18351;47.560;9.708;2023-12-20T06:51:56;5.90;99.90
31783;DHT22;18351;47.560;9.708;2023-12-20T06:54:21;5.90;99.90
31783;DHT22;18351;47.560;9.708;2023-12-20T06:56:47;5.90;99.90
31783;DHT22;18351;47.560;9.708;2023-12-20T06:59:12;5.90;99.90
31783;DHT22;18351;47.560;9.708;2023-12-20T07:01:38;5.90;99.90
31783;DHT22;18351;47.560;9.708;2023-12-20T07:04:03;5.90;99.90
31783;DHT22;18351;47.560;9.708;2023-12-20T07:06:29;5.90;99.90
31783;DHT22;18351;47.560;9.708;2023-12-20T07:08:54;5.90;99.90
31783;DHT22;18351;47.560;9.708;2023-12-20T07:11:20;5.90;99.90
31783;DHT22;18351;47.560;9.708;2023-12-20T07:13:45;5.90;99.90
31783;DHT22;18351;47.560;9.708;2023-12-20T07:16:11;5.90;99.90
31783;DHT22;18351;47.560;9.708;2023-12-20T07:18:37;5.90;99.90
31783;DHT22;18351;47.560;9.708;2023-12-20T07:21:03;5.90;99.90
31783;DHT22;18351;47.560;9.708;2023-12-20T07:23:28;5.90;99.90
31783;DHT22;18351;47.560;9.708;2023-12-20T07:25:54;5.90;99.90
31783;DHT22;18351;47.560;9.708;2023-12-20T07:28:20;5.90;99.90
31783;DHT22;18351;47.560;9.708;2023-12-20T07:30:45;6.00;99.90
31783;DHT22;18351;47.560;9.708;2023-12-20T07:33:11;5.90;99.90
31783;DHT22;18351;47.560;9.708;2023-12-20T07:35:37;5.90;99.90
31783;DHT22;18351;47.560;9.708;2023-12-20T07:38:03;5.90;99.90
31783;DHT22;18351;47.560;9.708;2023-12-20T07:40:29;5.80;99.90
31783;DHT22;18351;47.560;9.708;2023-12-20T07:42:54;5.80;99.90
31783;DHT22;18351;47.560;9.708;2023-12-20T07:45:20;5.80;99.90
31783;DHT22;18351;47.560;9.708;2023-12-20T07:47:45;5.80;99.90
31783;DHT22;18351;47.560;9.708;2023-12-20T07:50:11;5.90;99.90
31783;DHT22;18351;47.560;9.708;2023-12-20T07:52:37;5.80;99.90
31783;DHT22;18351;47.560;9.708;2023-12-20T07:55:02;5.70;99.90
31783;DHT22;18351;47.560;9.708;2023-12-20T07:57:29;5.80;99.90
31783;DHT22;18351;47.560;9.708;2023-12-20T07:59:56;5.80;99.90
31783;DHT22;18351;47.560;9.708;2023-12-20T08:02:21;5.80;99.90
31783;DHT22;18351;47.560;9.708;2023-12-20T08:04:47;5.70;99.90
31783;DHT22;18351;47.560;9.708;2023-12-20T08:07:13;5.70;99.90
31783;DHT22;18351;47.560;9.708;2023-12-20T08:09:38;5.80;99.90
31783;DHT22;18351;47.560;9.708;2023-12-20T08:12:04;5.80;99.90
31783;DHT22;18351;47.560;9.708;2023-12-20T08:14:29;5.80;99.90
31783;DHT22;18351;47.560;9.708;2023-12-20T08:16:55;5.70;99.90
31783;DHT22;18351;47.560;9.708;2023-12-20T08:19:20;5.80;99.90
31783;DHT22;18351;47.560;9.708;2023-12-20T08:21:46;5.80;99.90
31783;DHT22;18351;47.560;9.708;2023-12-20T08:24:12;5.80;99.90
31783;DHT22;18351;47.560;9.708;2023-12-20T08:26:37;5.80;99.90
31783;DHT22;18351;47.560;9.708;2023-12-20T08:29:03;5.80;99.90
31783;DHT22;18351;47.560;9.708;2023-12-20T08:31:28;5.80;99.90
31783;DHT22;18351;47.560;9.708;2023-12-20T08:33:54;5.80;99.90
31783;DHT22;18351;47.560;9.708;2023-12-20T08:36:20;5.80;99.90
31783;DHT22;18351;47.560;9.708;2023-12-20T08:38:47;5.80;99.90
31783;DHT22;18351;47.560;9.708;2023-12-20T08:41:13;5.90;99.90
31783;DHT22;18351;47.560;9.708;2023-12-20T08:43:39;5.90;99.90
31783;DHT22;18351;47.560;9.708;2023-12-20T08:46:08;5.90;99.90
31783;DHT22;18351;47.560;9.708;2023-12-20T08:48:35;5.90;99.90
31783;DHT22;18351;47.560;9.708;2023-12-20T08:51:01;6.00;99.90
31783;DHT22;18351;47.560;9.708;2023-12-20T08:53:26;6.00;99.90
31783;DHT22;18351;47.560;9.708;2023-12-20T08:55:52;6.00;99.90
31783;DHT22;18351;47.560;9.708;2023-12-20T08:58:17;6.10;99.90
31783;DHT22;18351;47.560;9.708;2023-12-20T09:00:43;6.10;99.90
31783;DHT22;18351;47.560;9.708;2023-12-20T09:03:09;6.10;99.90
31783;DHT22;18351;47.560;9.708;2023-12-20T09:05:35;6.20;99.90
31783;DHT22;18351;47.560;9.708;2023-12-20T09:08:00;6.20;99.90
31783;DHT22;18351;47.560;9.708;2023-12-20T09:10:26;6.20;99.90
31783;DHT22;18351;47.560;9.708;2023-12-20T09:12:52;6.30;99.90
31783;DHT22;18351;47.560;9.708;2023-12-20T09:15:26;6.30;99.90
31783;DHT22;18351;47.560;9.708;2023-12-20T09:17:52;6.30;99.90
31783;DHT22;18351;47.560;9.708;2023-12-20T09:20:18;6.30;99.90
31783;DHT22;18351;47.560;9.708;2023-12-20T09:22:43;6.40;99.90
31783;DHT22;18351;47.560;9.708;2023-12-20T09:25:10;6.40;99.90
31783;DHT22;18351;47.560;9.708;2023-12-20T09:27:36;6.50;99.90
31783;DHT22;18351;47.560;9.708;2023-12-20T09:30:02;6.50;99.90
31783;DHT22;18351;47.560;9.708;2023-12-20T09:32:29;6.50;99.90
31783;DHT22;18351;47.560;9.708;2023-12-20T09:34:55;6.50;99.90
31783;DHT22;18351;47.560;9.708;2023-12-20T09:37:20;6.50;99.90
31783;DHT22;18351;47.560;9.708;2023-12-20T09:39:46;6.50;99.90
31783;DHT22;18351;47.560;9.708;2023-12-20T09:42:12;6.50;99.90
31783;DHT22;18351;47.560;9.708;2023-12-20T09:44:41;6.50;99.90
31783;DHT22;18351;47.560;9.708;2023-12-20T09:47:08;6.40;99.90
31783;DHT22;18351;47.560;9.708;2023-12-20T09:49:34;6.50;99.90
31783;DHT22;18351;47.560;9.708;2023-12-20T09:52:01;6.50;99.90
31783;DHT22;18351;47.560;9.708;2023-12-20T09:54:28;6.50;99.90
31783;DHT22;18351;47.560;9.708;2023-12-20T09:56:54;6.60;99.90
31783;DHT22;18351;47.560;9.708;2023-12-20T09:59:20;6.60;99.90
31783;DHT22;18351;47.560;9.708;2023-12-20T10:01:45;6.60;99.90
31783;DHT22;18351;47.560;9.708;2023-12-20T10:04:13;6.60;99.90
31783;DHT22;18351;47.560;9.708;2023-12-20T10:06:44;6.70;99.90
31783;DHT22;18351;47.560;9.708;2023-12-20T10:09:11;6.70;99.90
31783;DHT22;18351;47.560;9.708;2023-12-20T10:11:40;6.70;99.90
31783;DHT22;18351;47.560;9.708;2023-12-20T10:14:06;6.70;99.90
31783;DHT22;18351;47.560;9.708;2023-12-20T10:16:33;6.70;99.90
31783;DHT22;18351;47.560;9.708;2023-12-20T10:18:59;6.80;99.90
31783;DHT22;18351;47.560;9.708;2023-12-20T10:21:26;6.80;99.90
31783;DHT22;18351;47.560;9.708;2023-12-20T10:23:54;6.80;99.90
31783;DHT22;18351;47.560;9.708;2023-12-20T10:26:24;6.80;99.90
31783;DHT22;18351;47.560;9.708;2023-12-20T10:28:50;6.80;99.90
31783;DHT22;18351;47.560;9.708;2023-12-20T10:31:30;6.80;99.90
31783;DHT22;18351;47.560;9.708;2023-12-20T10:34:02;6.80;99.90
31783;DHT22;18351;47.560;9.708;2023-12-20T10:36:32;6.80;99.90
31783;DHT22;18351;47.560;9.708;2023-12-20T10:38:58;6.80;99.90
31783;DHT22;18351;47.560;9.708;2023-12-20T10:41:31;6.80;99.90
31783;DHT22;18351;47.560;9.708;2023-12-20T10:43:59;6.80;99.90
31783;DHT22;18351;47.560;9.708;2023-12-20T10:46:29;6.90;99.90
31783;DHT22;18351;47.560;9.708;2023-12-20T10:48:56;6.90;99.90
31783;DHT22;18351;47.560;9.708;2023-12-20T10:51:23;6.90;99.90
31783;DHT22;18351;47.560;9.708;2023-12-20T10:53:51;7.00;99.90
31783;DHT22;18351;47.560;9.708;2023-12-20T10:56:18;7.00;99.90
31783;DHT22;18351;47.560;9.708;2023-12-20T10:58:45;7.00;99.90
31783;DHT22;18351;47.560;9.708;2023-12-20T11:01:15;7.00;99.90
31783;DHT22;18351;47.560;9.708;2023-12-20T11:03:51;7.00;99.90
31783;DHT22;18351;47.560;9.708;2023-12-20T11:09:22;7.00;99.90
31783;DHT22;18351;47.560;9.708;2023-12-20T11:12:21;7.00;99.90
31783;DHT22;18351;47.560;9.708;2023-12-20T11:14:49;7.00;99.90
31783;DHT22;18351;47.560;9.708;2023-12-20T11:17:15;7.00;99.90
31783;DHT22;18351;47.560;9.708;2023-12-20T11:22:20;7.00;99.90
31783;DHT22;18351;47.560;9.708;2023-12-20T11:24:47;7.00;99.90
31783;DHT22;18351;47.560;9.708;2023-12-20T11:27:13;7.10;99.90
31783;DHT22;18351;47.560;9.708;2023-12-20T11:29:39;7.00;99.90
31783;DHT22;18351;47.560;9.708;2023-12-20T11:34:53;7.10;99.90
31783;DHT22;18351;47.560;9.708;2023-12-20T11:37:20;7.10;99.90
31783;DHT22;18351;47.560;9.708;2023-12-20T11:39:45;7.10;99.90
31783;DHT22;18351;47.560;9.708;2023-12-20T11:42:19;7.10;99.90
31783;DHT22;18351;47.560;9.708;2023-12-20T11:44:45;7.10;99.90
31783;DHT22;18351;47.560;9.708;2023-12-20T11:47:12;7.10;99.90
31783;DHT22;18351;47.560;9.708;2023-12-20T11:49:38;7.10;99.90
31783;DHT22;18351;47.560;9.708;2023-12-20T11:52:03;7.10;99.90
31783;DHT22;18351;47.560;9.708;2023-12-20T11:54:30;7.10;99.90
31783;DHT22;18351;47.560;9.708;2023-12-20T11:56:55;7.00;99.90
31783;DHT22;18351;47.560;9.708;2023-12-20T11:59:21;7.10;99.90
31783;DHT22;18351;47.560;9.708;2023-12-20T12:01:51;7.10;99.90
31783;DHT22;18351;47.560;9.708;2023-12-20T12:04:16;7.10;99.90
31783;DHT22;18351;47.560;9.708;2023-12-20T12:06:46;7.10;99.90
31783;DHT22;18351;47.560;9.708;2023-12-20T12:09:11;7.10;99.90
31783;DHT22;18351;47.560;9.708;2023-12-20T12:11:37;7.20;99.90
31783;DHT22;18351;47.560;9.708;2023-12-20T12:14:03;7.20;99.90
31783;DHT22;18351;47.560;9.708;2023-12-20T12:16:29;7.30;99.90
31783;DHT22;18351;47.560;9.708;2023-12-20T12:18:57;7.20;99.90
31783;DHT22;18351;47.560;9.708;2023-12-20T12:21:23;7.30;99.90
31783;DHT22;18351;47.560;9.708;2023-12-20T12:23:48;7.30;99.90
31783;DHT22;18351;47.560;9.708;2023-12-20T12:26:14;7.30;99.90
31783;DHT22;18351;47.560;9.708;2023-12-20T12:28:43;7.40;99.90
31783;DHT22;18351;47.560;9.708;2023-12-20T12:31:13;7.40;99.90
31783;DHT22;18351;47.560;9.708;2023-12-20T12:33:40;7.30;99.90
31783;DHT22;18351;47.560;9.708;2023-12-20T12:36:07;7.40;99.90
31783;DHT22;18351;47.560;9.708;2023-12-20T12:38:33;7.30;99.90
31783;DHT22;18351;47.560;9.708;2023-12-20T12:41:00;7.30;99.90
31783;DHT22;18351;47.560;9.708;2023-12-20T12:43:26;7.30;99.90
31783;DHT22;18351;47.560;9.708;2023-12-20T12:45:51;7.40;99.90
31783;DHT22;18351;47.560;9.708;2023-12-20T12:48:17;7.40;99.90
31783;DHT22;18351;47.560;9.708;2023-12-20T12:50:43;7.40;99.90
31783;DHT22;18351;47.560;9.708;2023-12-20T12:53:09;7.40;99.90
31783;DHT22;18351;47.560;9.708;2023-12-20T12:55:35;7.30;99.90
31783;DHT22;18351;47.560;9.708;2023-12-20T12:58:01;7.30;99.90
31783;DHT22;18351;47.560;9.708;2023-12-20T13:00:27;7.40;99.90
31783;DHT22;18351;47.560;9.708;2023-12-20T13:02:53;7.30;99.90
31783;DHT22;18351;47.560;9.708;2023-12-20T13:05:18;7.40;99.90
31783;DHT22;18351;47.560;9.708;2023-12-20T13:07:44;7.50;99.90
31783;DHT22;18351;47.560;9.708;2023-12-20T13:10:11;7.50;99.90
31783;DHT22;18351;47.560;9.708;2023-12-20T13:12:37;7.60;99.90
31783;DHT22;18351;47.560;9.708;2023-12-20T13:15:02;7.60;99.90
31783;DHT22;18351;47.560;9.708;2023-12-20T13:17:29;7.70;99.90
31783;DHT22;18351;47.560;9.708;2023-12-20T13:19:55;7.60;99.90
31783;DHT22;18351;47.560;9.708;2023-12-20T13:22:20;7.60;99.90
31783;DHT22;18351;47.560;9.708;2023-12-20T13:24:46;7.50;99.90
31783;DHT22;18351;47.560;9.708;2023-12-20T13:27:11;7.50;99.90
31783;DHT22;18351;47.560;9.708;2023-12-20T13:29:37;7.40;99.90
31783;DHT22;18351;47.560;9.708;2023-12-20T13:32:02;7.40;99.90
31783;DHT22;18351;47.560;9.708;2023-12-20T13:34:29;7.40;99.90
31783;DHT22;18351;47.560;9.708;2023-12-20T13:36:54;7.40;99.90
31783;DHT22;18351;47.560;9.708;2023-12-20T13:39:20;7.50;99.90
31783;DHT22;18351;47.560;9.708;2023-12-20T13:41:46;7.50;99.90
31783;DHT22;18351;47.560;9.708;2023-12-20T13:44:12;7.40;99.90
31783;DHT22;18351;47.560;9.708;2023-12-20T13:46:38;7.40;99.90
31783;DHT22;18351;47.560;9.708;2023-12-20T13:49:04;7.40;99.90
31783;DHT22;18351;47.560;9.708;2023-12-20T13:51:30;7.40;99.90
31783;DHT22;18351;47.560;9.708;2023-12-20T13:53:56;7.40;99.90
31783;DHT22;18351;47.560;9.708;2023-12-20T13:56:21;7.30;99.90
31783;DHT22;18351;47.560;9.708;2023-12-20T13:58:48;7.40;99.90
31783;DHT22;18351;47.560;9.708;2023-12-20T14:01:14;7.30;99.90
31783;DHT22;18351;47.560;9.708;2023-12-20T14:03:40;7.30;99.90
31783;DHT22;18351;47.560;9.708;2023-12-20T14:06:06;7.30;99.90
31783;DHT22;18351;47.560;9.708;2023-12-20T14:08:32;7.30;99.90
31783;DHT22;18351;47.560;9.708;2023-12-20T14:10:57;7.30;99.90
31783;DHT22;18351;47.560;9.708;2023-12-20T14:13:23;7.30;99.90
31783;DHT22;18351;47.560;9.708;2023-12-20T14:15:48;7.20;99.90
31783;DHT22;18351;47.560;9.708;2023-12-20T14:18:15;7.20;99.90
31783;DHT22;18351;47.560;9.708;2023-12-20T14:20:40;7.20;99.90
31783;DHT22;18351;47.560;9.708;2023-12-20T14:23:08;7.20;99.90
31783;DHT22;18351;47.560;9.708;2023-12-20T14:25:35;7.20;99.90
31783;DHT22;18351;47.560;9.708;2023-12-20T14:28:05;7.20;99.90
31783;DHT22;18351;47.560;9.708;2023-12-20T14:30:31;7.20;99.90
31783;DHT22;18351;47.560;9.708;2023-12-20T14:32:57;7.20;99.90
31783;DHT22;18351;47.560;9.708;2023-12-20T14:35:23;7.20;99.90
31783;DHT22;18351;47.560;9.708;2023-12-20T14:37:49;7.20;99.90
31783;DHT22;18351;47.560;9.708;2023-12-20T14:40:15;7.10;99.90
31783;DHT22;18351;47.560;9.708;2023-12-20T14:42:45;7.10;99.90
31783;DHT22;18351;47.560;9.708;2023-12-20T14:45:11;7.10;99.90
31783;DHT22;18351;47.560;9.708;2023-12-20T14:47:38;7.00;99.90
31783;DHT22;18351;47.560;9.708;2023-12-20T14:50:04;6.90;99.90
31783;DHT22;18351;47.560;9.708;2023-12-20T14:52:31;6.90;99.90
31783;DHT22;18351;47.560;9.708;2023-12-20T14:54:57;6.80;99.90
31783;DHT22;18351;47.560;9.708;2023-12-20T14:57:23;6.80;99.90
31783;DHT22;18351;47.560;9.708;2023-12-20T14:59:48;6.80;99.90
31783;DHT22;18351;47.560;9.708;2023-12-20T15:02:14;6.70;99.90
31783;DHT22;18351;47.560;9.708;2023-12-20T15:04:40;6.70;99.90
31783;DHT22;18351;47.560;9.708;2023-12-20T15:07:06;6.70;99.90
31783;DHT22;18351;47.560;9.708;2023-12-20T15:09:32;6.60;99.90
31783;DHT22;18351;47.560;9.708;2023-12-20T15:11:57;6.60;99.90
31783;DHT22;18351;47.560;9.708;2023-12-20T15:14:23;6.60;99.90
31783;DHT22;18351;47.560;9.708;2023-12-20T15:16:48;6.60;99.90
31783;DHT22;18351;47.560;9.708;2023-12-20T15:19:14;6.60;99.90
31783;DHT22;18351;47.560;9.708;2023-12-20T15:21:41;6.60;99.90
31783;DHT22;18351;47.560;9.708;2023-12-20T15:24:11;6.50;99.90
31783;DHT22;18351;47.560;9.708;2023-12-20T15:26:41;6.50;99.90
31783;DHT22;18351;47.560;9.708;2023-12-20T15:29:07;6.40;99.90
31783;DHT22;18351;47.560;9.708;2023-12-20T15:31:37;6.40;99.90
31783;DHT22;18351;47.560;9.708;2023-12-20T15:34:06;6.50;99.90
31783;DHT22;18351;47.560;9.708;2023-12-20T15:36:32;6.40;99.90
31783;DHT22;18351;47.560;9.708;2023-12-20T15:38:58;6.40;99.90
31783;DHT22;18351;47.560;9.708;2023-12-20T15:41:23;6.40;99.90
31783;DHT22;18351;47.560;9.708;2023-12-20T15:43:49;6.40;99.90
31783;DHT22;18351;47.560;9.708;2023-12-20T15:46:14;6.40;99.90